Time;durP1;ratioP1;P1;durP2;ratioP2;P2;SDS_P1;SDS_P2;PMS_P1;PMS_P2;Temp;Humidity;BMP_temperature;BMP_pressure;BME280_temperature;BME280_humidity;BME280_pressure;Samples;Min_cycle;Max_cycle;Signal;HPM_P1;HPM_P2
2023/02/02 00:00:54;;;;;;;37.28;17.55;;;;;;;;;;5093793;28;20097;-65
2023/02/02 00:03:20;;;;;;;44.20;21.23;;;;;;;;;;5093889;28;20012;-67
2023/02/02 00:05:48;;;;;;;45.67;21.00;;;;;;;;;;5093918;28;20035;-66
2023/02/02 00:08:14;;;;;;;31.25;16.67;;;;;;;;;;5093720;28;20058;-66
2023/02/02 00:10:40;;;;;;;30.15;14.80;;;;;;;;;;5093934;28;20028;-66
2023/02/02 00:13:06;;;;;;;29.20;14.65;;;;;;;;;;5093712;28;20032;-78
2023/02/02 00:15:32;;;;;;;29.90;15.40;;;;;;;;;;5093319;28;20028;-66
2023/02/02 00:17:58;;;;;;;35.33;16.42;;;;;;;;;;5093430;28;20035;-66
2023/02/02 00:20:24;;;;;;;28.23;14.57;;;;;;;;;;5093473;28;20035;-66
2023/02/02 00:22:50;;;;;;;27.25;13.75;;;;;;;;;;5093458;28;20319;-66
2023/02/02 00:25:16;;;;;;;29.85;14.73;;;;;;;;;;5093212;28;20066;-70
2023/02/02 00:27:42;;;;;;;44.13;19.50;;;;;;;;;;5093445;28;20025;-66
2023/02/02 00:30:09;;;;;;;52.30;23.48;;;;;;;;;;5093426;28;20032;-66
2023/02/02 00:32:35;;;;;;;42.28;18.65;;;;;;;;;;5093009;28;20448;-73
2023/02/02 00:35:01;;;;;;;33.58;15.02;;;;;;;;;;5093235;28;20024;-66
2023/02/02 00:37:27;;;;;;;35.45;16.52;;;;;;;;;;5093178;28;20020;-66
2023/02/02 00:39:53;;;;;;;20.90;12.02;;;;;;;;;;5092834;28;20062;-66
2023/02/02 00:42:19;;;;;;;21.45;10.75;;;;;;;;;;5093152;28;20062;-80
2023/02/02 00:47:29;;;;;;;17.65;9.65;;;;;;;;;;5092981;28;20523;-66
2023/02/02 00:49:55;;;;;;;19.05;9.27;;;;;;;;;;5092227;28;20032;-65
2023/02/02 00:52:22;;;;;;;16.48;9.25;;;;;;;;;;5092620;28;20036;-69
2023/02/02 00:54:48;;;;;;;16.45;9.27;;;;;;;;;;5092870;28;20024;-66
2023/02/02 00:57:14;;;;;;;18.27;9.15;;;;;;;;;;5092634;28;20030;-66
2023/02/02 00:59:40;;;;;;;17.15;9.35;;;;;;;;;;5092474;28;20028;-66
2023/02/02 01:02:06;;;;;;;19.40;9.10;;;;;;;;;;5093033;28;20028;-66
2023/02/02 01:04:32;;;;;;;17.70;8.25;;;;;;;;;;5092319;28;20020;-66
2023/02/02 01:06:58;;;;;;;18.58;9.30;;;;;;;;;;5092988;28;20024;-68
2023/02/02 01:09:24;;;;;;;21.77;10.98;;;;;;;;;;5092585;28;20039;-66
2023/02/02 01:11:50;;;;;;;30.13;13.63;;;;;;;;;;5092336;28;20028;-64
2023/02/02 01:14:16;;;;;;;23.70;11.35;;;;;;;;;;5092377;28;20498;-64
2023/02/02 01:16:42;;;;;;;23.27;10.88;;;;;;;;;;5091953;28;20039;-65
2023/02/02 01:19:08;;;;;;;21.42;10.70;;;;;;;;;;5092397;28;20028;-64
2023/02/02 01:21:34;;;;;;;23.17;11.40;;;;;;;;;;5092668;28;20395;-64
2023/02/02 01:24:00;;;;;;;26.83;12.18;;;;;;;;;;5092011;28;20039;-64
2023/02/02 01:26:26;;;;;;;25.08;12.43;;;;;;;;;;5092169;28;20028;-64
2023/02/02 01:28:52;;;;;;;22.55;11.57;;;;;;;;;;5092060;28;20031;-65
2023/02/02 01:31:19;;;;;;;26.75;12.40;;;;;;;;;;5092254;28;20023;-65
2023/02/02 01:33:46;;;;;;;27.98;12.75;;;;;;;;;;5091810;28;20550;-65
2023/02/02 01:36:17;;;;;;;28.55;13.45;;;;;;;;;;5092169;28;20039;-66
2023/02/02 01:38:43;;;;;;;30.60;13.50;;;;;;;;;;5091726;28;20105;-66
2023/02/02 01:41:13;;;;;;;28.38;13.18;;;;;;;;;;5091889;28;20044;-64
2023/02/02 01:43:42;;;;;;;28.58;13.45;;;;;;;;;;5091729;28;20024;-77
2023/02/02 01:46:16;;;;;;;29.02;13.65;;;;;;;;;;5091794;28;20034;-64
2023/02/02 01:48:57;;;;;;;29.50;14.75;;;;;;;;;;5072783;28;20388;-65
2023/02/02 01:51:27;;;;;;;28.70;13.98;;;;;;;;;;5091954;28;20024;-64
2023/02/02 01:53:54;;;;;;;30.10;14.38;;;;;;;;;;5091685;28;20497;-65
2023/02/02 01:56:28;;;;;;;29.02;13.45;;;;;;;;;;5091449;28;20052;-64
2023/02/02 01:58:54;;;;;;;35.92;14.73;;;;;;;;;;5091667;28;20081;-65
2023/02/02 02:01:20;;;;;;;27.80;13.63;;;;;;;;;;5090542;28;20039;-65
2023/02/02 02:03:46;;;;;;;28.38;13.25;;;;;;;;;;5091518;28;20027;-64
2023/02/02 02:06:15;;;;;;;25.25;12.75;;;;;;;;;;5091414;28;20426;-66
2023/02/02 02:08:59;;;;;;;29.17;13.63;;;;;;;;;;5091373;28;20498;-67
2023/02/02 02:11:25;;;;;;;27.45;13.68;;;;;;;;;;5091465;28;20024;-72
2023/02/02 02:16:45;;;;;;;24.92;12.32;;;;;;;;;;5091244;28;20106;-64
2023/02/02 02:19:20;;;;;;;32.53;14.40;;;;;;;;;;5091029;28;20474;-70
2023/02/02 02:27:30;;;;;;;26.42;12.02;;;;;;;;;;5091265;28;20047;-68
2023/02/02 02:30:11;;;;;;;28.92;12.80;;;;;;;;;;5090988;28;20028;-65
2023/02/02 02:32:41;;;;;;;31.88;13.70;;;;;;;;;;5091181;28;20027;-66
2023/02/02 02:35:10;;;;;;;23.17;12.02;;;;;;;;;;5091309;28;20101;-70
2023/02/02 02:37:39;;;;;;;32.97;14.15;;;;;;;;;;5091039;28;20016;-70
2023/02/02 02:40:05;;;;;;;28.10;12.65;;;;;;;;;;5090551;28;20056;-65
2023/02/02 02:42:33;;;;;;;25.38;11.50;;;;;;;;;;5091261;28;20036;-65
2023/02/02 02:45:01;;;;;;;28.05;12.27;;;;;;;;;;5090644;28;20016;-65
2023/02/02 02:47:28;;;;;;;29.23;12.95;;;;;;;;;;5090918;28;20549;-65
2023/02/02 02:49:54;;;;;;;27.67;12.07;;;;;;;;;;5090802;28;20357;-66
2023/02/02 02:52:20;;;;;;;29.60;13.77;;;;;;;;;;5090977;28;20034;-66
2023/02/02 02:54:52;;;;;;;26.67;12.82;;;;;;;;;;5091033;28;20103;-65
2023/02/02 02:57:18;;;;;;;27.23;12.05;;;;;;;;;;5090743;28;20024;-65
2023/02/02 02:59:44;;;;;;;25.73;11.65;;;;;;;;;;5090705;28;20036;-65
2023/02/02 03:02:15;;;;;;;25.80;11.70;;;;;;;;;;5092247;28;20353;-65
2023/02/02 03:04:44;;;;;;;26.20;11.88;;;;;;;;;;5091480;28;20032;-65
2023/02/02 03:07:16;;;;;;;33.38;13.55;;;;;;;;;;5090239;28;20035;-65
2023/02/02 03:09:43;;;;;;;36.70;13.93;;;;;;;;;;5090285;28;20042;-66
2023/02/02 03:12:09;;;;;;;28.65;12.82;;;;;;;;;;5091513;28;20040;-75
2023/02/02 03:14:36;;;;;;;31.67;12.35;;;;;;;;;;5095012;28;20028;-66
2023/02/02 03:17:02;;;;;;;34.20;11.55;;;;;;;;;;5094578;28;20116;-66
2023/02/02 03:19:28;;;;;;;26.58;12.70;;;;;;;;;;5094589;28;20032;-78
2023/02/02 03:21:54;;;;;;;30.25;12.65;;;;;;;;;;5094701;28;20024;-66
2023/02/02 03:24:20;;;;;;;36.28;13.80;;;;;;;;;;5094723;28;20031;-67
2023/02/02 03:26:46;;;;;;;30.52;12.27;;;;;;;;;;5094689;28;20024;-65
2023/02/02 03:29:13;;;;;;;31.48;11.55;;;;;;;;;;5094168;28;20023;-65
2023/02/02 03:31:39;;;;;;;28.90;12.55;;;;;;;;;;5094437;28;20031;-65
2023/02/02 03:34:05;;;;;;;26.70;11.27;;;;;;;;;;5094549;28;20098;-65
2023/02/02 03:36:31;;;;;;;30.33;11.55;;;;;;;;;;5094426;28;20028;-65
2023/02/02 03:38:57;;;;;;;33.70;12.02;;;;;;;;;;5094076;28;20044;-65
2023/02/02 03:41:23;;;;;;;27.33;11.40;;;;;;;;;;5094225;28;20043;-65
2023/02/02 03:43:49;;;;;;;33.42;11.60;;;;;;;;;;5094088;28;20028;-65
2023/02/02 03:46:15;;;;;;;27.35;10.98;;;;;;;;;;5094126;28;20031;-65
2023/02/02 03:48:41;;;;;;;30.38;12.98;;;;;;;;;;5094117;28;20021;-65
2023/02/02 03:51:11;;;;;;;40.42;13.43;;;;;;;;;;5094267;28;20460;-66
2023/02/02 03:53:38;;;;;;;36.33;13.65;;;;;;;;;;5094104;28;20542;-66
2023/02/02 03:56:04;;;;;;;31.25;12.13;;;;;;;;;;5094212;28;20103;-65
2023/02/02 03:58:30;;;;;;;37.97;13.68;;;;;;;;;;5094189;28;20107;-65
2023/02/02 04:01:02;;;;;;;35.63;12.38;;;;;;;;;;5093868;28;20031;-65
2023/02/02 04:03:28;;;;;;;37.42;13.27;;;;;;;;;;5094086;28;20031;-65
2023/02/02 04:05:54;;;;;;;42.97;12.88;;;;;;;;;;5093875;28;20043;-65
2023/02/02 04:08:20;;;;;;;29.77;10.95;;;;;;;;;;5093947;28;20059;-66
2023/02/02 04:10:46;;;;;;;31.50;11.45;;;;;;;;;;5093209;28;20479;-66
2023/02/02 04:13:12;;;;;;;31.80;11.73;;;;;;;;;;5093506;28;20028;-65
2023/02/02 04:15:39;;;;;;;28.48;11.10;;;;;;;;;;5093275;28;20078;-65
2023/02/02 04:18:05;;;;;;;27.33;10.77;;;;;;;;;;5093572;28;20032;-66
2023/02/02 04:20:31;;;;;;;26.30;10.80;;;;;;;;;;5093760;28;20484;-65
2023/02/02 04:22:57;;;;;;;26.60;10.70;;;;;;;;;;5093444;28;20042;-65
2023/02/02 04:25:24;;;;;;;24.98;10.13;;;;;;;;;;5092424;28;20027;-67
2023/02/02 04:27:50;;;;;;;28.73;11.10;;;;;;;;;;5092941;28;20024;-65
2023/02/02 04:30:16;;;;;;;28.67;12.00;;;;;;;;;;5093394;28;20017;-65
2023/02/02 04:32:42;;;;;;;40.70;14.25;;;;;;;;;;5092998;28;20032;-70
2023/02/02 04:35:08;;;;;;;30.77;12.25;;;;;;;;;;5093312;28;20082;-66
2023/02/02 04:37:34;;;;;;;27.38;11.18;;;;;;;;;;5092463;28;20036;-65
2023/02/02 04:40:00;;;;;;;29.02;11.35;;;;;;;;;;5085562;28;20127;-66
2023/02/02 04:42:26;;;;;;;30.27;12.07;;;;;;;;;;5093022;28;20198;-79
2023/02/02 04:44:52;;;;;;;27.15;11.30;;;;;;;;;;5092747;28;20024;-65
2023/02/02 04:47:18;;;;;;;27.60;11.85;;;;;;;;;;5093042;28;20032;-65
2023/02/02 04:49:44;;;;;;;34.53;12.57;;;;;;;;;;5092552;28;20127;-79
2023/02/02 04:52:11;;;;;;;19.38;10.65;;;;;;;;;;5093166;28;20127;-79
2023/02/02 04:54:37;;;;;;;25.65;12.45;;;;;;;;;;5074495;28;20455;-65
2023/02/02 04:57:03;;;;;;;23.83;11.07;;;;;;;;;;5092757;28;20110;-78
2023/02/02 04:59:29;;;;;;;22.95;10.63;;;;;;;;;;5092628;28;20032;-66
2023/02/02 05:01:59;;;;;;;23.25;12.18;;;;;;;;;;5092521;28;20041;-78
2023/02/02 05:04:25;;;;;;;26.55;12.13;;;;;;;;;;5092788;28;20059;-66
2023/02/02 05:06:51;;;;;;;25.10;11.82;;;;;;;;;;5092487;28;20384;-79
2023/02/02 05:09:17;;;;;;;23.30;11.10;;;;;;;;;;5092162;28;20032;-65
2023/02/02 05:11:43;;;;;;;22.73;11.63;;;;;;;;;;5092472;28;20498;-73
2023/02/02 05:14:10;;;;;;;44.55;16.17;;;;;;;;;;5092720;28;20078;-69
2023/02/02 05:16:36;;;;;;;22.73;11.70;;;;;;;;;;5092498;28;20104;-66
2023/02/02 05:19:02;;;;;;;23.15;10.73;;;;;;;;;;5073617;28;20040;-66
2023/02/02 05:21:28;;;;;;;26.67;11.98;;;;;;;;;;5092283;28;20105;-65
2023/02/02 05:23:54;;;;;;;27.98;10.95;;;;;;;;;;5092163;28;20024;-65
2023/02/02 05:26:21;;;;;;;26.83;9.93;;;;;;;;;;5092208;28;20111;-65
2023/02/02 05:28:48;;;;;;;25.65;10.63;;;;;;;;;;5092372;28;20093;-66
2023/02/02 05:31:14;;;;;;;21.20;9.20;;;;;;;;;;5091717;28;20099;-66
2023/02/02 05:33:40;;;;;;;19.40;8.95;;;;;;;;;;5092107;28;20103;-70
2023/02/02 05:36:06;;;;;;;19.77;9.05;;;;;;;;;;5091920;28;20462;-65
2023/02/02 05:38:32;;;;;;;25.88;9.73;;;;;;;;;;5091719;28;20031;-67
2023/02/02 05:40:58;;;;;;;29.15;11.88;;;;;;;;;;5092098;28;20480;-66
2023/02/02 05:43:25;;;;;;;32.33;12.05;;;;;;;;;;5091884;28;20464;-65
2023/02/02 05:45:51;;;;;;;24.08;8.98;;;;;;;;;;5091891;28;20430;-66
2023/02/02 05:48:17;;;;;;;20.15;8.82;;;;;;;;;;5091889;28;20028;-65
2023/02/02 05:50:44;;;;;;;20.33;9.18;;;;;;;;;;5091982;28;20028;-65
2023/02/02 05:53:13;;;;;;;26.00;10.55;;;;;;;;;;5091464;28;20030;-70
2023/02/02 05:55:39;;;;;;;22.95;10.35;;;;;;;;;;5090634;28;20077;-66
2023/02/02 05:58:05;;;;;;;28.67;10.52;;;;;;;;;;5090934;28;20453;-65
2023/02/02 06:00:31;;;;;;;25.23;10.00;;;;;;;;;;5092003;28;20131;-65
2023/02/02 06:02:57;;;;;;;19.70;9.88;;;;;;;;;;5091751;28;20032;-71
2023/02/02 06:05:24;;;;;;;22.08;10.00;;;;;;;;;;5091782;28;20110;-65
2023/02/02 06:07:50;;;;;;;34.67;12.70;;;;;;;;;;5091196;28;20062;-65
2023/02/02 06:10:16;;;;;;;33.45;11.13;;;;;;;;;;5091453;28;20032;-65
2023/02/02 06:12:43;;;;;;;26.20;10.45;;;;;;;;;;5091480;28;20028;-81
2023/02/02 06:15:09;;;;;;;29.15;10.93;;;;;;;;;;5091226;28;20392;-65
2023/02/02 06:17:35;;;;;;;21.30;9.60;;;;;;;;;;5090944;28;20023;-65
2023/02/02 06:20:01;;;;;;;39.72;11.10;;;;;;;;;;5091115;28;20032;-74
2023/02/02 06:22:29;;;;;;;23.05;11.38;;;;;;;;;;5091459;28;20383;-66
2023/02/02 06:24:55;;;;;;;25.77;12.02;;;;;;;;;;5090813;28;20853;-66
2023/02/02 06:27:21;;;;;;;27.40;15.35;;;;;;;;;;5090658;28;20024;-64
2023/02/02 06:29:47;;;;;;;21.38;11.70;;;;;;;;;;5091272;28;20024;-66
2023/02/02 06:32:13;;;;;;;24.90;13.95;;;;;;;;;;5090901;28;20021;-65
2023/02/02 06:34:39;;;;;;;20.98;10.15;;;;;;;;;;5090977;28;20585;-65
2023/02/02 06:37:05;;;;;;;23.17;10.80;;;;;;;;;;5091264;28;20111;-64
2023/02/02 06:39:31;;;;;;;20.73;10.38;;;;;;;;;;5090542;28;20044;-65
2023/02/02 06:41:57;;;;;;;21.27;11.35;;;;;;;;;;5091052;28;20161;-65
2023/02/02 06:44:23;;;;;;;21.75;11.23;;;;;;;;;;5090711;28;20852;-66
2023/02/02 06:46:49;;;;;;;22.58;11.07;;;;;;;;;;5090339;28;20037;-70
2023/02/02 06:52:37;;;;;;;25.35;13.40;;;;;;;;;;5091281;28;20035;-74
2023/02/02 06:55:12;;;;;;;31.85;15.45;;;;;;;;;;5074838;28;20108;-66
2023/02/02 06:57:44;;;;;;;35.63;16.55;;;;;;;;;;5074782;28;20111;-66
2023/02/02 07:00:24;;;;;;;26.65;14.95;;;;;;;;;;5410770;22;20076;-66
2023/02/02 07:02:50;;;;;;;23.75;13.75;;;;;;;;;;4970360;28;20062;-74
2023/02/02 07:05:18;;;;;;;25.45;12.68;;;;;;;;;;4971764;28;20105;-64
2023/02/02 07:07:44;;;;;;;27.52;13.80;;;;;;;;;;4972259;28;20018;-64
2023/02/02 07:10:10;;;;;;;31.90;17.00;;;;;;;;;;4971998;28;20098;-63
2023/02/02 07:12:37;;;;;;;27.17;14.10;;;;;;;;;;4971936;28;20026;-64
2023/02/02 07:15:03;;;;;;;24.65;14.18;;;;;;;;;;4970392;28;20019;-67
2023/02/02 07:17:29;;;;;;;28.80;14.20;;;;;;;;;;4970449;28;20023;-63
2023/02/02 07:19:55;;;;;;;27.00;14.68;;;;;;;;;;4970372;28;20050;-71
2023/02/02 07:22:21;;;;;;;24.25;14.45;;;;;;;;;;4970459;28;20499;-74
2023/02/02 07:24:47;;;;;;;28.02;15.05;;;;;;;;;;4970444;28;20035;-74
2023/02/02 07:27:13;;;;;;;26.95;13.90;;;;;;;;;;4970543;28;20031;-63
2023/02/02 07:29:39;;;;;;;27.33;14.68;;;;;;;;;;4970455;28;20019;-64
2023/02/02 07:32:05;;;;;;;35.25;17.77;;;;;;;;;;4970576;28;20534;-65
2023/02/02 07:34:31;;;;;;;26.00;12.02;;;;;;;;;;4970126;28;20419;-76
2023/02/02 07:36:58;;;;;;;28.42;15.48;;;;;;;;;;4970400;28;20054;-64
2023/02/02 07:39:24;;;;;;;28.40;16.20;;;;;;;;;;4971443;28;20099;-64
2023/02/02 07:41:50;;;;;;;29.35;17.38;;;;;;;;;;4971889;28;20031;-69
2023/02/02 07:44:16;;;;;;;31.23;16.80;;;;;;;;;;4971291;28;20117;-69
2023/02/02 07:46:45;;;;;;;30.33;15.63;;;;;;;;;;4971533;28;20030;-66
2023/02/02 07:49:15;;;;;;;25.98;14.77;;;;;;;;;;4970937;28;20499;-70
2023/02/02 07:51:41;;;;;;;25.92;14.88;;;;;;;;;;4971484;28;20054;-70
2023/02/02 07:54:08;;;;;;;30.02;16.92;;;;;;;;;;4971850;28;20027;-73
2023/02/02 07:56:34;;;;;;;21.55;11.68;;;;;;;;;;4954344;28;20364;-75
2023/02/02 07:59:00;;;;;;;18.95;11.23;;;;;;;;;;4972265;28;20039;-65
2023/02/02 08:01:27;;;;;;;18.85;10.38;;;;;;;;;;4974549;28;20519;-63
2023/02/02 08:03:54;;;;;;;22.27;10.85;;;;;;;;;;4957213;28;20039;-74
2023/02/02 08:06:21;;;;;;;18.73;9.88;;;;;;;;;;4974900;28;20030;-64
2023/02/02 08:08:48;;;;;;;18.55;10.40;;;;;;;;;;4974024;28;20093;-71
2023/02/02 08:11:15;;;;;;;18.00;8.40;;;;;;;;;;4975188;28;20034;-74
2023/02/02 08:13:42;;;;;;;13.75;8.27;;;;;;;;;;4974693;28;20053;-68
2023/02/02 08:16:08;;;;;;;15.13;8.25;;;;;;;;;;4973987;28;20031;-64
2023/02/02 08:18:34;;;;;;;13.85;7.07;;;;;;;;;;4987697;28;20030;-64
2023/02/02 08:21:01;;;;;;;17.55;9.98;;;;;;;;;;4973482;28;20136;-67
2023/02/02 08:23:27;;;;;;;25.38;14.20;;;;;;;;;;4973282;28;20121;-65
2023/02/02 08:25:54;;;;;;;21.70;10.82;;;;;;;;;;4970880;28;20065;-64
2023/02/02 08:28:21;;;;;;;15.13;7.70;;;;;;;;;;4973176;28;20019;-70
2023/02/02 08:30:47;;;;;;;18.58;9.68;;;;;;;;;;4979882;28;20479;-64
2023/02/02 08:33:13;;;;;;;14.65;7.40;;;;;;;;;;4973341;28;20041;-64
2023/02/02 08:35:42;;;;;;;12.13;6.28;;;;;;;;;;4973034;28;20122;-64
2023/02/02 08:38:08;;;;;;;12.60;6.30;;;;;;;;;;4974067;28;20394;-66
2023/02/02 08:40:35;;;;;;;14.82;7.53;;;;;;;;;;4983934;28;20081;-64
2023/02/02 08:43:02;;;;;;;12.02;6.97;;;;;;;;;;4993110;28;20027;-64
2023/02/02 08:45:28;;;;;;;16.13;7.03;;;;;;;;;;4993097;28;20113;-65
2023/02/02 08:47:54;;;;;;;17.33;9.00;;;;;;;;;;4993381;28;20486;-64
2023/02/02 08:50:20;;;;;;;13.05;6.95;;;;;;;;;;4993033;28;20034;-64
2023/02/02 08:52:46;;;;;;;15.57;8.40;;;;;;;;;;4954663;29;20102;-64
2023/02/02 08:55:13;;;;;;;13.90;8.27;;;;;;;;;;4983466;28;20073;-64
2023/02/02 08:57:39;;;;;;;17.15;8.93;;;;;;;;;;4993369;28;20482;-64
2023/02/02 09:00:06;;;;;;;13.88;7.90;;;;;;;;;;4993027;28;21130;-72
2023/02/02 09:02:32;;;;;;;12.77;6.82;;;;;;;;;;4992915;28;20054;-64
2023/02/02 09:04:58;;;;;;;12.63;6.97;;;;;;;;;;4993241;28;20034;-67
2023/02/02 09:07:24;;;;;;;11.82;6.18;;;;;;;;;;4985282;28;20429;-64
2023/02/02 09:09:51;;;;;;;12.20;6.38;;;;;;;;;;4973516;28;20031;-72
2023/02/02 09:12:17;;;;;;;12.52;6.10;;;;;;;;;;4974038;28;20092;-64
2023/02/02 09:14:43;;;;;;;10.07;6.18;;;;;;;;;;4971709;28;20037;-64
2023/02/02 09:17:09;;;;;;;10.23;5.95;;;;;;;;;;4971554;28;20049;-64
2023/02/02 09:19:35;;;;;;;10.77;6.00;;;;;;;;;;4973123;28;20487;-72
2023/02/02 09:22:01;;;;;;;12.25;6.05;;;;;;;;;;4973659;28;20093;-63
2023/02/02 09:24:27;;;;;;;10.40;6.32;;;;;;;;;;4972942;28;20023;-64
2023/02/02 09:26:53;;;;;;;11.43;6.30;;;;;;;;;;4973294;28;20479;-64
2023/02/02 09:29:20;;;;;;;9.93;6.10;;;;;;;;;;4972746;28;20046;-64
2023/02/02 09:31:46;;;;;;;11.52;6.93;;;;;;;;;;4973399;28;20031;-64
2023/02/02 09:34:13;;;;;;;9.88;5.93;;;;;;;;;;4972985;28;20523;-67
2023/02/02 09:36:39;;;;;;;11.00;6.28;;;;;;;;;;4972563;28;20114;-65
2023/02/02 09:39:06;;;;;;;10.32;6.18;;;;;;;;;;4972720;28;20404;-64
2023/02/02 09:41:39;;;;;;;10.90;5.60;;;;;;;;;;4987925;28;20049;-62
2023/02/02 09:44:11;;;;;;;9.45;5.35;;;;;;;;;;4972656;28;20102;-63
2023/02/02 09:46:37;;;;;;;8.88;5.38;;;;;;;;;;4972927;28;20113;-64
2023/02/02 09:49:07;;;;;;;9.35;5.15;;;;;;;;;;4972332;28;20034;-64
2023/02/02 09:51:39;;;;;;;10.43;5.95;;;;;;;;;;4972592;28;20030;-67
2023/02/02 09:54:05;;;;;;;7.35;4.28;;;;;;;;;;4972587;28;20031;-64
2023/02/02 09:56:34;;;;;;;9.90;6.28;;;;;;;;;;4972730;28;20026;-64
2023/02/02 09:59:01;;;;;;;10.50;6.13;;;;;;;;;;4973092;28;20026;-65
2023/02/02 10:01:31;;;;;;;11.23;6.20;;;;;;;;;;4972054;28;20066;-64
2023/02/02 10:04:00;;;;;;;13.73;5.95;;;;;;;;;;4972926;28;20018;-64
2023/02/02 10:06:37;;;;;;;12.35;6.15;;;;;;;;;;4971279;28;20050;-63
2023/02/02 10:09:22;;;;;;;12.65;6.65;;;;;;;;;;4972961;28;20027;-67
2023/02/02 10:12:07;;;;;;;11.43;6.10;;;;;;;;;;4972857;28;20093;-67
2023/02/02 10:15:05;;;;;;;14.85;6.10;;;;;;;;;;4971487;28;20097;-68
2023/02/02 10:17:33;;;;;;;10.43;5.80;;;;;;;;;;4931752;29;20134;-64
2023/02/02 10:20:02;;;;;;;11.73;5.93;;;;;;;;;;4931949;29;20131;-64
2023/02/02 10:22:29;;;;;;;10.50;5.88;;;;;;;;;;4931175;29;20179;-63
2023/02/02 10:24:57;;;;;;;11.02;6.07;;;;;;;;;;4931200;29;20042;-75
2023/02/02 10:27:45;;;;;;;11.20;6.07;;;;;;;;;;4931628;29;20490;-68
2023/02/02 10:30:24;;;;;;;12.15;6.05;;;;;;;;;;4931011;29;20505;-64
2023/02/02 10:32:57;;;;;;;76.50;12.60;;;;;;;;;;4931762;29;20032;-64
2023/02/02 10:35:42;;;;;;;43.15;9.60;;;;;;;;;;4930722;29;20039;-64
2023/02/02 10:38:14;;;;;;;17.08;6.32;;;;;;;;;;4931697;29;20125;-64
2023/02/02 10:41:06;;;;;;;8.63;4.53;;;;;;;;;;4931334;29;20052;-64
2023/02/02 10:43:53;;;;;;;12.85;5.78;;;;;;;;;;4893314;29;20064;-75
2023/02/02 10:46:24;;;;;;;14.48;6.25;;;;;;;;;;4892246;29;20107;-59
2023/02/02 10:48:56;;;;;;;10.48;6.43;;;;;;;;;;4893363;29;20401;-72
2023/02/02 10:51:28;;;;;;;12.77;6.40;;;;;;;;;;4893734;29;20040;-61
2023/02/02 10:53:56;;;;;;;10.82;5.93;;;;;;;;;;4902365;29;20263;-60
2023/02/02 10:56:27;;;;;;;9.02;5.40;;;;;;;;;;4912249;29;20039;-60
2023/02/02 10:59:15;;;;;;;9.18;4.88;;;;;;;;;;4912054;29;20036;-60
2023/02/02 11:01:42;;;;;;;9.77;5.20;;;;;;;;;;4911690;29;20524;-60
2023/02/02 11:06:54;;;;;;;10.55;4.93;;;;;;;;;;4911965;29;20144;-63
2023/02/02 11:09:24;;;;;;;8.20;4.80;;;;;;;;;;4911539;29;20033;-61
2023/02/02 11:11:52;;;;;;;10.82;5.10;;;;;;;;;;4912016;29;20424;-68
2023/02/02 11:14:23;;;;;;;10.13;5.60;;;;;;;;;;4911096;29;20103;-59
2023/02/02 11:16:59;;;;;;;8.10;4.32;;;;;;;;;;4911376;29;20103;-60
2023/02/02 11:19:28;;;;;;;10.90;5.43;;;;;;;;;;4918756;28;20068;-60
2023/02/02 11:21:55;;;;;;;9.73;5.25;;;;;;;;;;4970926;28;20483;-60
2023/02/02 11:24:24;;;;;;;10.82;5.50;;;;;;;;;;4969956;28;20039;-72
2023/02/02 11:26:54;;;;;;;11.77;5.78;;;;;;;;;;4970538;28;20033;-61
2023/02/02 11:29:28;;;;;;;10.45;5.68;;;;;;;;;;4971902;28;20042;-60
2023/02/02 11:31:54;;;;;;;12.23;6.47;;;;;;;;;;4971654;28;20065;-61
2023/02/02 11:34:25;;;;;;;11.40;6.03;;;;;;;;;;4974384;28;20034;-60
2023/02/02 11:36:58;;;;;;;11.57;6.25;;;;;;;;;;4975696;28;20018;-60
2023/02/02 11:39:25;;;;;;;11.25;6.25;;;;;;;;;;4975215;28;20023;-72
2023/02/02 11:41:51;;;;;;;10.82;5.45;;;;;;;;;;4975307;28;20035;-60
2023/02/02 11:44:25;;;;;;;10.10;5.75;;;;;;;;;;4975482;28;20031;-60
2023/02/02 11:46:51;;;;;;;12.57;6.57;;;;;;;;;;4974731;28;20426;-68
2023/02/02 11:49:18;;;;;;;10.75;5.80;;;;;;;;;;4975452;28;20389;-60
2023/02/02 11:51:55;;;;;;;13.70;6.85;;;;;;;;;;4975301;28;20133;-60
2023/02/02 11:54:27;;;;;;;13.98;6.50;;;;;;;;;;4975398;28;20067;-71
2023/02/02 11:56:54;;;;;;;18.25;7.60;;;;;;;;;;4975286;28;20526;-60
2023/02/02 11:59:32;;;;;;;16.17;7.38;;;;;;;;;;4975119;28;20027;-59
2023/02/02 12:02:10;;;;;;;15.25;7.07;;;;;;;;;;4974653;28;20094;-66
2023/02/02 12:04:36;;;;;;;14.07;6.65;;;;;;;;;;4974624;28;20098;-62
2023/02/02 12:07:02;;;;;;;11.85;5.95;;;;;;;;;;4975121;28;20466;-60
2023/02/02 12:09:28;;;;;;;8.90;4.78;;;;;;;;;;4974948;28;20030;-60
2023/02/02 12:12:05;;;;;;;12.98;5.32;;;;;;;;;;4975111;28;20027;-65
2023/02/02 12:14:31;;;;;;;10.88;5.30;;;;;;;;;;4974671;28;20039;-60
2023/02/02 12:17:09;;;;;;;11.15;5.38;;;;;;;;;;4974622;28;20029;-66
2023/02/02 12:19:54;;;;;;;8.27;4.43;;;;;;;;;;4978131;28;20033;-72
2023/02/02 12:22:40;;;;;;;10.77;4.63;;;;;;;;;;4994296;28;20229;-63
2023/02/02 12:25:09;;;;;;;9.05;4.40;;;;;;;;;;4955289;29;20495;-67
2023/02/02 12:27:42;;;;;;;8.80;4.60;;;;;;;;;;4968225;28;20038;-72
2023/02/02 12:30:11;;;;;;;10.60;4.97;;;;;;;;;;4973979;28;20034;-63
2023/02/02 12:32:55;;;;;;;8.68;4.75;;;;;;;;;;4974617;28;20030;-60
2023/02/02 12:35:27;;;;;;;10.60;5.15;;;;;;;;;;4984916;28;20042;-60
2023/02/02 12:37:59;;;;;;;9.65;4.20;;;;;;;;;;4985981;28;20042;-66
2023/02/02 12:40:34;;;;;;;8.85;4.68;;;;;;;;;;4973012;28;20038;-72
2023/02/02 12:43:19;;;;;;;8.70;4.40;;;;;;;;;;4972967;28;20382;-60
2023/02/02 12:45:45;;;;;;;7.55;4.18;;;;;;;;;;4972366;28;20038;-64
2023/02/02 12:48:14;;;;;;;7.43;4.05;;;;;;;;;;4972986;28;20437;-61
2023/02/02 12:50:40;;;;;;;9.65;4.40;;;;;;;;;;4972103;28;20027;-72
2023/02/02 12:53:06;;;;;;;9.27;4.80;;;;;;;;;;4972695;28;20086;-64
2023/02/02 12:55:35;;;;;;;11.20;4.45;;;;;;;;;;4974070;28;20026;-68
2023/02/02 12:58:01;;;;;;;9.60;5.15;;;;;;;;;;4974025;28;20062;-71
2023/02/02 13:00:36;;;;;;;9.73;4.65;;;;;;;;;;4973791;28;20046;-74
2023/02/02 13:03:09;;;;;;;8.60;4.60;;;;;;;;;;4954907;28;20051;-71
2023/02/02 13:05:52;;;;;;;14.23;8.38;;;;;;;;;;4954650;29;20035;-70
2023/02/02 13:08:21;;;;;;;10.95;5.80;;;;;;;;;;4954626;29;20102;-79
2023/02/02 13:10:49;;;;;;;10.35;6.10;;;;;;;;;;4954674;29;20087;-72
2023/02/02 13:13:26;;;;;;;10.60;5.60;;;;;;;;;;4954559;29;20557;-70
2023/02/02 13:15:54;;;;;;;12.73;6.22;;;;;;;;;;4954283;29;20024;-64
2023/02/02 13:18:26;;;;;;;11.05;6.43;;;;;;;;;;4954028;29;20035;-61
2023/02/02 13:20:55;;;;;;;12.40;6.55;;;;;;;;;;4954205;29;20090;-63
2023/02/02 13:23:27;;;;;;;13.35;5.97;;;;;;;;;;4954351;29;20031;-61
2023/02/02 13:25:53;;;;;;;12.23;6.60;;;;;;;;;;4968726;28;20027;-61
2023/02/02 13:28:28;;;;;;;11.90;6.45;;;;;;;;;;4973370;28;20033;-62
2023/02/02 13:30:56;;;;;;;12.45;6.60;;;;;;;;;;4973019;28;20027;-61
2023/02/02 13:33:33;;;;;;;14.70;8.27;;;;;;;;;;4973424;28;20090;-67
2023/02/02 13:36:05;;;;;;;13.68;8.57;;;;;;;;;;4962104;28;20031;-60
2023/02/02 13:38:33;;;;;;;16.00;8.32;;;;;;;;;;4953979;29;20440;-60
2023/02/02 13:41:02;;;;;;;15.27;7.93;;;;;;;;;;4953725;29;20050;-62
2023/02/02 13:43:46;;;;;;;12.77;6.47;;;;;;;;;;4953911;29;20031;-62
2023/02/02 13:46:12;;;;;;;14.07;6.70;;;;;;;;;;4953686;29;20042;-60
2023/02/02 13:49:00;;;;;;;9.10;5.28;;;;;;;;;;4953478;29;20023;-61
2023/02/02 13:51:30;;;;;;;11.25;5.60;;;;;;;;;;4953555;29;20514;-84
2023/02/02 13:53:56;;;;;;;11.18;5.18;;;;;;;;;;4953232;29;20027;-61
2023/02/02 13:56:38;;;;;;;12.00;5.85;;;;;;;;;;4952881;28;20381;-60
2023/02/02 13:59:16;;;;;;;9.25;5.40;;;;;;;;;;4953442;29;20491;-66
2023/02/02 14:01:44;;;;;;;8.80;5.00;;;;;;;;;;4962375;28;20483;-59
2023/02/02 14:04:20;;;;;;;8.05;4.78;;;;;;;;;;4972763;28;20497;-64
2023/02/02 14:06:57;;;;;;;9.15;4.70;;;;;;;;;;4972621;28;20038;-72
2023/02/02 14:09:25;;;;;;;12.48;5.18;;;;;;;;;;4972488;28;20030;-82
2023/02/02 14:12:06;;;;;;;13.68;5.03;;;;;;;;;;4972791;28;20089;-62
2023/02/02 14:14:35;;;;;;;11.93;4.88;;;;;;;;;;4972654;28;20054;-80
2023/02/02 14:17:27;;;;;;;13.82;5.93;;;;;;;;;;4972325;28;20033;-60
2023/02/02 14:19:55;;;;;;;12.30;5.10;;;;;;;;;;4971789;28;20117;-61
2023/02/02 14:22:39;;;;;;;8.90;4.80;;;;;;;;;;4972283;28;20508;-80
2023/02/02 14:25:44;;;;;;;10.15;4.30;;;;;;;;;;4972313;28;20031;-61
2023/02/02 14:28:11;;;;;;;8.40;4.85;;;;;;;;;;4931300;29;20028;-61
2023/02/02 14:30:38;;;;;;;10.27;4.82;;;;;;;;;;4931045;29;20482;-74
2023/02/02 14:33:22;;;;;;;10.38;4.28;;;;;;;;;;4931332;29;20028;-62
2023/02/02 14:35:48;;;;;;;9.30;4.75;;;;;;;;;;4931375;29;20023;-62
2023/02/02 14:38:17;;;;;;;10.18;5.10;;;;;;;;;;4931524;29;20632;-63
2023/02/02 14:41:06;;;;;;;10.15;4.28;;;;;;;;;;4931478;29;20062;-61
2023/02/02 14:43:43;;;;;;;13.80;6.40;;;;;;;;;;4926123;29;20419;-61
2023/02/02 14:46:12;;;;;;;13.02;6.15;;;;;;;;;;4930793;29;20079;-61
2023/02/02 14:48:43;;;;;;;9.65;5.20;;;;;;;;;;4929839;29;20024;-61
2023/02/02 14:51:29;;;;;;;11.95;6.20;;;;;;;;;;4929955;29;20040;-75
2023/02/02 14:54:02;;;;;;;10.35;5.32;;;;;;;;;;4930337;29;20035;-61